Hlavní strana
METAR-TAF:

METAR-TAF

Letiště :

Pensacola Regional Airport

Pensacola, Florida, Spojené státy americké

zeměpisná šířka: 30-28-41N, zeměpisná délka: 087-11-13W, výška: 36 m

Aktuální stav počasí

Zpráva byla vytvořena před 14 minutami, v 17:53 UTC
Severoseverozápadní vítr 13 kt
Teplota 17°C
Vlhkost vzduchu 45%
Tlak 1019 hPa
Viditelnost: 16.1 km

METAR: KPNS 151753Z AUTO 34013KT 10SM 17/05 A3009 RMK AO2 SLP192 T01670050 10172 20078 $

Čas: 12:07 (18:07 UTC)

Předpověď počasí

Zpráva byla vytvořena před 35 minutami, v 17:32 UTC
Předpověď platná od 15 v 18 UTC do 16 v 18 UTC
Severní vítr 15 kt s nárazy do 22 kt
Viditelnost: 10 km
Jasno
Od 16 v 0800 UTC
Severoseverozápadní vítr 10 kt
Viditelnost: 10 km
Jasno

TAF: KPNS 151732Z 1518/1618 35015G22KT P6SM SKC FM160800 34010KT P6SM SKC

Stav a předpovědi počasí z více než 4 000 letišť (zprávy METAR a TAF).

Červené a žluté tečky na mapě představují dostupné meteorologické stanice.

Když kurzor umístíte na tečku, zobrazí se název stanice.

Pak kliknutím zobrazíte stav a předpověď počasí.

Chcete-li změnit mapu, kliknutím na zelené tlačítko se znaménkem +mapu přiblížíte, kliknutím na zelené tlačítko se znaménkem – mapu oddálíte a kliknutím na zelené šipky přejdete na sousední mapy.


METAR-TAF: